Time;durP1;ratioP1;P1;durP2;ratioP2;P2;SDS_P1;SDS_P2;PMS_P1;PMS_P2;Temp;Humidity;BMP_temperature;BMP_pressure;BME280_temperature;BME280_humidity;BME280_pressure;Samples;Min_cycle;Max_cycle;Signal;HPM_P1;HPM_P2
2024/01/10 00:01:17;;;;;;;7.90;5.20;;;;;;;0.62;51.73;103125.94;106944;1254;25926;-52
2024/01/10 00:03:44;;;;;;;7.30;4.90;;;;;;;0.61;51.61;103125.38;106088;1257;1002965;-52
2024/01/10 00:06:12;;;;;;;8.30;5.50;;;;;;;0.61;51.78;103125.58;106813;1257;25410;-51
2024/01/10 00:08:39;;;;;;;6.90;5.30;;;;;;;0.61;51.60;103125.05;106876;1257;25484;-52
2024/01/10 00:11:28;;;;;;;7.20;4.80;;;;;;;0.63;51.72;103129.25;105762;1273;1002733;-51
2024/01/10 00:13:59;;;;;;;6.40;4.40;;;;;;;0.66;51.87;103132.34;106002;1257;1003512;-51
2024/01/10 00:16:28;;;;;;;7.00;5.10;;;;;;;0.67;51.71;103133.25;106625;1272;25917;-52
2024/01/10 00:18:55;;;;;;;7.10;5.20;;;;;;;0.67;51.79;103128.98;106268;1275;25590;-51
2024/01/10 00:21:22;;;;;;;6.90;4.80;;;;;;;0.67;51.73;103125.92;106006;1259;1002887;-51
2024/01/10 00:23:49;;;;;;;5.70;4.40;;;;;;;0.67;51.91;103127.10;105873;1269;1002835;-51
2024/01/10 00:26:16;;;;;;;7.80;5.00;;;;;;;0.66;51.76;103132.33;106433;1259;25459;-51
2024/01/10 00:28:46;;;;;;;6.30;4.90;;;;;;;0.65;51.80;103128.01;105591;1260;1003288;-51
2024/01/10 00:31:13;;;;;;;8.10;4.80;;;;;;;0.64;51.77;103122.52;106757;1256;25452;-53
2024/01/10 00:33:40;;;;;;;6.00;5.10;;;;;;;0.63;51.78;103118.52;106249;1263;25334;-51
2024/01/10 00:36:08;;;;;;;6.00;4.60;;;;;;;0.65;51.94;103121.02;106657;1259;25545;-51
2024/01/10 00:38:36;;;;;;;6.10;4.80;;;;;;;0.67;51.98;103125.55;105784;1272;1015790;-51
2024/01/10 00:41:03;;;;;;;5.90;3.90;;;;;;;0.69;51.87;103121.63;106748;1269;25337;-52
2024/01/10 00:43:30;;;;;;;6.20;4.20;;;;;;;0.72;51.64;103122.10;106032;1262;1003151;-51
2024/01/10 00:45:57;;;;;;;5.60;4.00;;;;;;;0.71;51.54;103110.77;106097;1259;1003104;-51
2024/01/10 00:48:25;;;;;;;5.40;4.10;;;;;;;0.69;51.51;103108.27;106206;1269;1003000;-51
2024/01/10 00:50:52;;;;;;;5.20;3.70;;;;;;;0.68;51.53;103110.43;106333;1251;1003051;-51
2024/01/10 00:53:19;;;;;;;5.20;3.60;;;;;;;0.65;51.41;103105.33;106323;1258;1003406;-51
2024/01/10 00:55:46;;;;;;;4.80;3.50;;;;;;;0.63;51.33;103098.34;106375;1257;1002855;-51
2024/01/10 00:58:13;;;;;;;4.70;3.60;;;;;;;0.59;51.00;103096.41;107123;1263;25366;-52
2024/01/10 01:00:41;;;;;;;7.20;3.70;;;;;;;0.59;51.05;103087.68;106032;1252;1002888;-52
2024/01/10 01:03:08;;;;;;;5.70;3.90;;;;;;;0.58;51.37;103089.88;107166;1255;25345;-52
2024/01/10 01:05:35;;;;;;;8.50;4.30;;;;;;;0.60;51.56;103085.34;107085;1256;25365;-52
2024/01/10 01:08:03;;;;;;;4.70;3.40;;;;;;;0.61;51.92;103081.52;106341;1259;1002666;-52
2024/01/10 01:10:30;;;;;;;4.20;3.10;;;;;;;0.65;51.91;103071.13;106915;1262;25353;-51
2024/01/10 01:13:03;;;;;;;4.50;3.30;;;;;;;0.65;51.38;103072.48;106847;1259;25278;-51
2024/01/10 01:15:30;;;;;;;4.70;3.90;;;;;;;0.63;51.40;103074.10;106499;1255;1002879;-51
2024/01/10 01:17:57;;;;;;;5.00;3.70;;;;;;;0.65;51.34;103074.54;106447;1256;1003270;-51
2024/01/10 01:20:24;;;;;;;6.40;3.80;;;;;;;0.67;51.54;103066.63;106062;1261;1004039;-51
2024/01/10 01:22:54;;;;;;;6.30;4.10;;;;;;;0.67;51.53;103058.10;106832;1259;23880;-51
2024/01/10 01:25:21;;;;;;;6.00;4.30;;;;;;;0.67;51.65;103048.73;106981;1259;25337;-51
2024/01/10 01:27:48;;;;;;;5.30;4.00;;;;;;;0.70;51.72;103049.38;106380;1267;1002836;-51
2024/01/10 01:30:15;;;;;;;6.20;4.30;;;;;;;0.73;51.79;103048.19;106103;1259;1002902;-51
2024/01/10 01:32:43;;;;;;;5.70;3.70;;;;;;;0.75;51.60;103046.09;106745;1275;25487;-51
2024/01/10 01:35:10;;;;;;;6.40;3.80;;;;;;;0.74;51.53;103044.14;107187;1257;25343;-51
2024/01/10 01:37:38;;;;;;;5.80;3.70;;;;;;;0.72;51.25;103034.46;106360;1256;1003490;-51
2024/01/10 01:40:06;;;;;;;5.40;4.00;;;;;;;0.75;51.64;103037.17;106431;1253;1015635;-51
2024/01/10 01:42:33;;;;;;;5.70;3.70;;;;;;;0.77;51.47;103035.45;106498;1259;1003188;-51
2024/01/10 01:45:00;;;;;;;3.60;3.10;;;;;;;0.78;51.63;103034.80;107109;1270;25338;-51
2024/01/10 01:47:27;;;;;;;4.40;3.60;;;;;;;0.80;51.39;103033.70;105964;1266;1003573;-51
2024/01/10 01:49:55;;;;;;;5.00;3.50;;;;;;;0.81;51.55;103034.24;106352;1257;1002922;-52
2024/01/10 01:52:22;;;;;;;3.60;3.00;;;;;;;0.80;51.30;103030.63;105936;1275;1002877;-51
2024/01/10 01:54:49;;;;;;;3.70;3.00;;;;;;;0.83;51.26;103030.29;106257;1259;1015462;-51
2024/01/10 01:57:16;;;;;;;4.90;3.30;;;;;;;0.83;51.03;103020.34;106220;1259;1003720;-51
2024/01/10 01:59:43;;;;;;;4.40;3.10;;;;;;;0.84;51.13;103021.11;106316;1269;1003627;-51
2024/01/10 02:02:11;;;;;;;4.00;3.00;;;;;;;0.86;50.96;103017.80;106264;1263;1002708;-51
2024/01/10 02:04:38;;;;;;;4.60;3.30;;;;;;;0.86;50.75;103019.85;106310;1257;1002836;-51
2024/01/10 02:07:05;;;;;;;4.90;3.00;;;;;;;0.86;50.60;103020.70;106363;1260;1003308;-51
2024/01/10 02:09:32;;;;;;;4.10;3.10;;;;;;;0.85;50.78;103019.12;106399;1256;1003217;-51
2024/01/10 02:11:59;;;;;;;4.80;3.20;;;;;;;0.84;50.61;103015.30;106374;1254;1003664;-51
2024/01/10 02:14:27;;;;;;;3.90;2.80;;;;;;;0.83;50.38;103008.90;107068;1257;25414;-51
2024/01/10 02:16:54;;;;;;;4.80;3.40;;;;;;;0.80;50.20;103000.23;106821;1251;25356;-51
2024/01/10 02:19:22;;;;;;;5.50;3.40;;;;;;;0.80;50.35;102998.15;106113;1266;1003299;-51
2024/01/10 02:21:49;;;;;;;4.20;3.30;;;;;;;0.80;50.14;102995.25;106846;1259;22530;-51
2024/01/10 02:24:16;;;;;;;7.70;3.30;;;;;;;0.78;50.32;102998.93;106427;1266;1002947;-51
2024/01/10 02:26:44;;;;;;;4.70;3.30;;;;;;;0.78;50.48;102991.03;106067;1262;1003685;-51
2024/01/10 02:29:11;;;;;;;7.30;3.70;;;;;;;0.80;50.75;102987.06;107143;1260;25400;-51
2024/01/10 02:31:38;;;;;;;5.00;3.60;;;;;;;0.82;50.53;102988.91;107133;1256;25344;-51
2024/01/10 02:34:05;;;;;;;4.00;3.60;;;;;;;0.85;50.62;102990.89;106377;1261;1002946;-51
2024/01/10 02:36:32;;;;;;;4.90;3.50;;;;;;;0.88;50.82;102986.98;107048;1258;25322;-51
2024/01/10 02:39:00;;;;;;;6.50;5.10;;;;;;;0.90;50.59;102982.14;106400;1265;1002949;-51
2024/01/10 02:41:28;;;;;;;5.80;4.50;;;;;;;0.90;50.45;102983.50;107107;1257;25325;-51
2024/01/10 02:43:58;;;;;;;6.30;4.60;;;;;;;0.88;50.40;102980.64;107161;1256;25411;-51
2024/01/10 02:46:28;;;;;;;6.50;4.70;;;;;;;0.83;50.31;102983.13;106544;1259;638032;-50
2024/01/10 02:48:55;;;;;;;6.80;5.20;;;;;;;0.78;50.10;102975.86;105784;1262;1003703;-50
2024/01/10 02:51:24;;;;;;;7.20;4.50;;;;;;;0.72;49.91;102974.85;106815;1257;25344;-52
2024/01/10 02:53:51;;;;;;;6.00;4.60;;;;;;;0.66;50.07;102970.28;105648;1264;1003472;-52
2024/01/10 02:56:18;;;;;;;7.60;4.80;;;;;;;0.63;50.30;102971.12;106167;1257;1003100;-52
2024/01/10 02:58:45;;;;;;;8.30;5.10;;;;;;;0.62;50.32;102974.96;106063;1266;1003730;-51
2024/01/10 03:01:14;;;;;;;6.80;5.50;;;;;;;0.59;49.97;102969.51;106358;1254;1003257;-52
2024/01/10 03:03:41;;;;;;;8.60;4.70;;;;;;;0.53;49.82;102969.02;106408;1257;1003667;-52
2024/01/10 03:06:08;;;;;;;9.60;5.20;;;;;;;0.45;49.79;102970.44;107134;1259;25318;-52
2024/01/10 03:08:35;;;;;;;6.70;4.40;;;;;;;0.39;49.78;102970.16;106841;1259;24052;-50
2024/01/10 03:11:02;;;;;;;6.60;4.60;;;;;;;0.37;49.88;102971.89;106902;1258;24243;-52
2024/01/10 03:13:29;;;;;;;6.50;4.40;;;;;;;0.34;49.97;102976.02;106369;1263;1003707;-52
2024/01/10 03:15:57;;;;;;;6.80;5.20;;;;;;;0.34;49.97;102975.98;106350;1262;1002998;-52
2024/01/10 03:18:24;;;;;;;7.30;5.20;;;;;;;0.34;50.05;102978.52;107117;1257;25488;-52
2024/01/10 03:20:51;;;;;;;8.10;4.60;;;;;;;0.34;50.01;102977.85;106462;1257;1003771;-51
2024/01/10 03:23:18;;;;;;;7.30;4.90;;;;;;;0.33;49.87;102978.36;106388;1266;1003045;-52
2024/01/10 03:25:46;;;;;;;7.40;5.50;;;;;;;0.32;49.87;102978.46;107107;1263;25399;-52
2024/01/10 03:28:17;;;;;;;8.50;4.90;;;;;;;0.31;50.02;102977.89;106778;1267;25360;-49
2024/01/10 03:30:45;;;;;;;6.40;4.50;;;;;;;0.31;50.16;102977.71;107090;1272;25409;-52
2024/01/10 03:33:12;;;;;;;9.30;5.70;;;;;;;0.32;50.31;102976.58;106902;1264;25365;-52
2024/01/10 03:35:39;;;;;;;7.40;5.70;;;;;;;0.32;50.05;102976.04;106351;1257;1003243;-52
2024/01/10 03:38:06;;;;;;;9.50;5.10;;;;;;;0.31;50.18;102975.34;106391;1261;1003344;-52
2024/01/10 03:40:34;;;;;;;9.20;6.00;;;;;;;0.30;49.96;102974.38;106359;1257;1003159;-52
2024/01/10 03:43:01;;;;;;;8.80;5.80;;;;;;;0.25;49.69;102972.10;107114;1256;24238;-52
2024/01/10 03:45:29;;;;;;;9.70;5.80;;;;;;;0.22;50.08;102972.05;107051;1257;26880;-52
2024/01/10 03:47:56;;;;;;;8.80;5.00;;;;;;;0.20;50.15;102970.09;107159;1257;22553;-52
2024/01/10 03:50:23;;;;;;;8.10;5.60;;;;;;;0.19;49.92;102967.95;107027;1257;25437;-52
2024/01/10 03:52:51;;;;;;;6.20;4.60;;;;;;;0.15;50.18;102971.84;106049;1267;1002898;-52
2024/01/10 03:55:18;;;;;;;9.40;6.10;;;;;;;0.11;50.18;102968.54;107148;1257;25321;-50
2024/01/10 03:57:45;;;;;;;8.20;5.70;;;;;;;0.11;50.43;102975.39;106970;1270;24250;-52
2024/01/10 04:00:12;;;;;;;8.40;5.70;;;;;;;0.10;50.47;102963.56;107058;1267;23861;-51
2024/01/10 04:02:39;;;;;;;9.40;6.10;;;;;;;0.08;50.57;102961.55;106861;1262;25368;-51
2024/01/10 04:05:09;;;;;;;7.20;5.40;;;;;;;0.07;50.70;102959.27;106768;1262;25365;-51
2024/01/10 04:07:36;;;;;;;7.80;5.70;;;;;;;0.06;50.72;102960.44;106231;1259;1003140;-51
2024/01/10 04:10:06;;;;;;;9.50;4.80;;;;;;;0.06;50.84;102958.55;106838;1262;25328;-51
2024/01/10 04:12:34;;;;;;;9.50;5.90;;;;;;;0.06;50.76;102956.33;106477;1257;1003415;-49
2024/01/10 04:15:01;;;;;;;8.60;5.80;;;;;;;0.05;51.03;102950.98;106342;1257;1003464;-51
2024/01/10 04:17:29;;;;;;;10.00;6.00;;;;;;;0.04;51.09;102946.52;106074;1272;1002980;-51
2024/01/10 04:19:57;;;;;;;8.80;6.40;;;;;;;0.04;50.93;102951.10;107069;1260;25414;-51
2024/01/10 04:22:24;;;;;;;9.10;6.60;;;;;;;-0.01;50.78;102953.58;107078;1257;25356;-51
2024/01/10 04:24:51;;;;;;;9.80;6.70;;;;;;;-0.06;50.58;102957.22;106309;1258;1003269;-51
2024/01/10 04:27:18;;;;;;;10.10;6.60;;;;;;;-0.11;50.62;102956.61;106315;1259;1015598;-52
2024/01/10 04:29:47;;;;;;;10.30;6.70;;;;;;;-0.16;50.36;102959.93;106097;1267;1002937;-51
2024/01/10 04:32:14;;;;;;;10.40;7.10;;;;;;;-0.20;50.49;102958.80;106438;1256;1003038;-51
2024/01/10 04:34:41;;;;;;;10.80;7.00;;;;;;;-0.24;50.58;102956.20;106471;1257;1003525;-51
2024/01/10 04:37:08;;;;;;;11.40;6.70;;;;;;;-0.25;50.50;102952.20;106390;1257;1003429;-51
2024/01/10 04:39:35;;;;;;;8.70;6.50;;;;;;;-0.24;50.80;102948.83;107227;1257;23736;-51
2024/01/10 04:42:02;;;;;;;9.40;6.80;;;;;;;-0.23;50.89;102944.64;106311;1256;1003676;-52
2024/01/10 04:44:29;;;;;;;10.90;7.30;;;;;;;-0.18;51.08;102942.04;107040;1260;22746;-51
2024/01/10 04:46:56;;;;;;;11.90;7.90;;;;;;;-0.14;51.05;102940.23;106869;1256;25488;-51
2024/01/10 04:49:23;;;;;;;16.10;8.60;;;;;;;-0.14;51.07;102941.25;107119;1257;25398;-52
2024/01/10 04:51:51;;;;;;;11.50;7.80;;;;;;;-0.14;50.80;102938.17;106838;1266;25409;-51
2024/01/10 04:54:19;;;;;;;11.40;8.20;;;;;;;-0.13;50.65;102938.91;106828;1274;23287;-51
2024/01/10 04:56:46;;;;;;;12.10;8.00;;;;;;;-0.15;50.62;102936.95;107149;1257;22531;-51
2024/01/10 04:59:13;;;;;;;12.00;8.10;;;;;;;-0.16;50.35;102936.55;107068;1257;25340;-51
2024/01/10 05:01:40;;;;;;;15.50;9.20;;;;;;;-0.18;50.13;102930.09;107137;1266;25356;-51
2024/01/10 05:04:07;;;;;;;12.60;8.90;;;;;;;-0.21;49.92;102926.20;107167;1266;25329;-51
2024/01/10 05:06:35;;;;;;;13.50;8.60;;;;;;;-0.20;49.46;102926.20;107025;1266;25340;-51
2024/01/10 05:09:02;;;;;;;13.20;9.00;;;;;;;-0.26;49.20;102923.65;107125;1257;25478;-51
2024/01/10 05:11:29;;;;;;;14.00;9.70;;;;;;;-0.29;49.28;102929.98;106551;1257;1003457;-52
2024/01/10 05:13:57;;;;;;;12.50;9.00;;;;;;;-0.30;48.91;102928.19;107077;1254;24202;-52
2024/01/10 05:16:24;;;;;;;13.20;9.10;;;;;;;-0.35;48.87;102930.65;107191;1257;25347;-51
2024/01/10 05:18:51;;;;;;;14.30;9.00;;;;;;;-0.38;48.82;102934.90;107098;1263;25484;-51
2024/01/10 05:21:18;;;;;;;13.50;9.10;;;;;;;-0.44;48.31;102932.70;106445;1257;1002862;-52
2024/01/10 05:23:45;;;;;;;14.90;9.80;;;;;;;-0.54;48.09;102931.09;105859;1268;1002973;-51
2024/01/10 05:26:12;;;;;;;12.90;8.50;;;;;;;-0.63;47.81;102939.26;106350;1261;1003413;-51
2024/01/10 05:28:39;;;;;;;14.30;8.30;;;;;;;-0.71;47.26;102938.23;106104;1269;1003343;-51
2024/01/10 05:31:06;;;;;;;12.20;8.10;;;;;;;-0.78;47.24;102944.45;106213;1263;1003314;-51
2024/01/10 05:33:34;;;;;;;13.40;8.20;;;;;;;-0.83;46.99;102946.60;106560;1275;25334;-51
2024/01/10 05:36:01;;;;;;;12.30;8.20;;;;;;;-0.85;46.85;102940.50;107083;1257;25325;-51
2024/01/10 05:38:28;;;;;;;14.00;8.20;;;;;;;-0.88;46.66;102939.47;106324;1259;1003146;-51
2024/01/10 05:40:55;;;;;;;13.30;8.60;;;;;;;-0.91;46.49;102936.73;106365;1264;1003016;-51
2024/01/10 05:43:23;;;;;;;12.80;8.20;;;;;;;-0.93;46.58;102934.72;106353;1264;1003160;-51
2024/01/10 05:45:51;;;;;;;12.50;8.00;;;;;;;-0.95;46.64;102931.74;106324;1256;1003789;-51
2024/01/10 05:48:17;;;;;;;12.00;8.00;;;;;;;-0.93;46.77;102930.84;107111;1266;25337;-51
2024/01/10 05:50:45;;;;;;;12.70;7.90;;;;;;;-0.94;45.88;102939.30;107275;1271;25351;-51
2024/01/10 05:53:16;;;;;;;11.60;7.50;;;;;;;-0.96;45.59;102933.52;107149;1263;25328;-51
2024/01/10 05:55:45;;;;;;;11.90;7.60;;;;;;;-0.99;45.33;102926.88;106895;1259;25478;-51
2024/01/10 05:58:12;;;;;;;14.60;8.40;;;;;;;-1.01;45.22;102926.77;106349;1261;1003686;-51
2024/01/10 06:00:39;;;;;;;13.30;8.10;;;;;;;-1.06;44.84;102926.32;106993;1270;25478;-51
2024/01/10 06:03:07;;;;;;;12.50;8.10;;;;;;;-1.11;44.43;102929.55;107110;1260;25356;-51
2024/01/10 06:05:34;;;;;;;12.90;7.90;;;;;;;-1.17;44.23;102926.95;107115;1256;25347;-51
2024/01/10 06:08:04;;;;;;;11.90;7.30;;;;;;;-1.20;44.36;102925.42;106907;1267;24237;-51
2024/01/10 06:10:31;;;;;;;12.60;7.80;;;;;;;-1.23;44.46;102928.31;106392;1257;1003021;-51
2024/01/10 06:13:01;;;;;;;13.10;7.50;;;;;;;-1.23;44.54;102927.63;107214;1257;26511;-51
2024/01/10 06:15:29;;;;;;;13.30;7.80;;;;;;;-1.23;44.90;102923.02;105994;1275;1002472;-51
2024/01/10 06:17:56;;;;;;;13.40;7.40;;;;;;;-1.20;44.65;102921.50;106377;1255;1003055;-51
2024/01/10 06:20:23;;;;;;;15.00;8.30;;;;;;;-1.15;44.38;102923.33;106366;1257;1003078;-51
2024/01/10 06:22:50;;;;;;;12.20;6.70;;;;;;;-1.08;44.31;102927.35;107134;1264;25233;-51
2024/01/10 06:25:17;;;;;;;13.80;7.20;;;;;;;-1.00;43.99;102928.52;106048;1267;1003740;-51
2024/01/10 06:27:44;;;;;;;10.10;6.90;;;;;;;-0.91;43.84;102924.13;106410;1261;1003846;-51
2024/01/10 06:30:12;;;;;;;11.60;6.80;;;;;;;-0.82;43.85;102920.59;106062;1265;1003285;-51
2024/01/10 06:32:40;;;;;;;10.90;7.00;;;;;;;-0.75;43.33;102917.72;106450;1263;1003783;-51
2024/01/10 06:35:09;;;;;;;11.30;7.10;;;;;;;-0.77;42.39;102915.26;106447;1260;1002958;-51
2024/01/10 06:37:37;;;;;;;11.50;6.20;;;;;;;-0.78;42.37;102916.69;106144;1262;1003624;-51
2024/01/10 06:40:05;;;;;;;8.90;6.30;;;;;;;-0.78;42.39;102917.38;106879;1267;22546;-51
2024/01/10 06:42:33;;;;;;;10.80;6.40;;;;;;;-0.75;42.53;102915.84;106897;1257;25226;-53
2024/01/10 06:45:00;;;;;;;11.80;7.30;;;;;;;-0.75;42.72;102913.83;107104;1259;22636;-51
2024/01/10 06:47:27;;;;;;;10.20;7.00;;;;;;;-0.73;42.88;102910.89;106347;1257;1003679;-51
2024/01/10 06:49:55;;;;;;;11.30;7.40;;;;;;;-0.69;42.99;102906.30;107110;1266;25356;-51
2024/01/10 06:52:22;;;;;;;11.80;7.30;;;;;;;-0.65;42.80;102904.69;106424;1256;1002981;-51
2024/01/10 06:54:49;;;;;;;13.10;7.30;;;;;;;-0.63;42.98;102904.16;106460;1270;1002807;-52
2024/01/10 06:57:17;;;;;;;13.30;7.40;;;;;;;-0.62;43.07;102905.90;106353;1266;1003798;-51
2024/01/10 06:59:44;;;;;;;11.50;6.80;;;;;;;-0.61;43.04;102902.92;106384;1258;1003789;-51
2024/01/10 07:02:11;;;;;;;13.50;7.10;;;;;;;-0.56;43.18;102899.95;106287;1266;1003250;-51
2024/01/10 07:04:38;;;;;;;12.20;8.20;;;;;;;-0.51;43.22;102900.42;106356;1260;1015734;-52
2024/01/10 07:07:05;;;;;;;12.70;8.60;;;;;;;-0.41;42.90;102899.95;106352;1266;1003207;-52
2024/01/10 07:09:32;;;;;;;13.00;8.00;;;;;;;-0.34;42.81;102898.46;107075;1266;25414;-50
2024/01/10 07:11:59;;;;;;;12.10;7.40;;;;;;;-0.27;42.76;102898.54;106075;1269;1003757;-51
2024/01/10 07:14:26;;;;;;;11.70;7.80;;;;;;;-0.23;42.35;102895.38;106040;1269;1003464;-52
2024/01/10 07:16:56;;;;;;;10.70;7.00;;;;;;;-0.19;42.60;102894.92;106039;1268;1003355;-52
2024/01/10 07:19:23;;;;;;;10.40;7.30;;;;;;;-0.11;42.61;102896.02;106114;1270;1003357;-51
2024/01/10 07:21:55;;;;;;;11.00;7.70;;;;;;;-0.05;42.32;102897.20;107080;1262;25487;-52
2024/01/10 07:24:22;;;;;;;11.50;7.50;;;;;;;-0.04;42.22;102903.27;107128;1260;22567;-52
2024/01/10 07:26:49;;;;;;;14.00;7.20;;;;;;;-0.04;42.20;102898.68;106830;1269;25490;-52
2024/01/10 07:29:16;;;;;;;13.90;8.20;;;;;;;0.01;42.33;102896.52;106358;1254;1002902;-51
2024/01/10 07:31:43;;;;;;;12.50;7.30;;;;;;;0.06;41.90;102893.00;107027;1260;25344;-51
2024/01/10 07:34:12;;;;;;;9.70;6.20;;;;;;;0.07;41.80;102891.52;106865;1267;25414;-51
2024/01/10 07:36:42;;;;;;;11.20;7.10;;;;;;;0.08;41.52;102891.61;106359;1255;1002897;-51
2024/01/10 07:39:10;;;;;;;12.20;7.00;;;;;;;0.09;41.37;102889.77;106390;1257;1002931;-51
2024/01/10 07:41:37;;;;;;;9.40;6.60;;;;;;;0.14;41.11;102887.68;106492;1263;1005185;-51
2024/01/10 07:44:04;;;;;;;10.50;7.10;;;;;;;0.18;41.00;102887.68;106090;1275;1002783;-51
2024/01/10 07:46:31;;;;;;;12.70;7.20;;;;;;;0.17;40.91;102889.00;107087;1257;25344;-51
2024/01/10 07:49:00;;;;;;;10.90;6.90;;;;;;;0.17;41.08;102893.63;106406;1254;1003836;-51
2024/01/10 07:51:27;;;;;;;13.70;7.40;;;;;;;0.18;40.51;102893.88;106399;1267;1003523;-51
2024/01/10 07:53:54;;;;;;;11.70;7.10;;;;;;;0.18;40.16;102896.04;106354;1266;1003583;-51
2024/01/10 07:56:21;;;;;;;10.00;7.10;;;;;;;0.11;39.81;102892.60;106279;1267;1003072;-51
2024/01/10 07:58:51;;;;;;;11.00;7.00;;;;;;;0.04;39.79;102892.73;107066;1267;22533;-51
2024/01/10 08:01:18;;;;;;;10.90;7.20;;;;;;;0.01;39.86;102893.80;107086;1257;24378;-51
2024/01/10 08:03:45;;;;;;;11.70;7.30;;;;;;;-0.01;40.04;102890.48;107160;1267;23322;-51
2024/01/10 08:06:13;;;;;;;9.30;6.50;;;;;;;0.00;39.77;102893.24;106684;1274;25523;-51
2024/01/10 08:08:53;;;;;;;10.60;7.40;;;;;;;0.01;39.76;102888.01;106310;1266;1003008;-51
2024/01/10 08:11:20;;;;;;;12.20;6.80;;;;;;;0.04;40.05;102889.13;106833;1270;25472;-51
2024/01/10 08:13:47;;;;;;;9.70;7.20;;;;;;;0.07;40.31;102887.13;106631;1257;25347;-51
2024/01/10 08:16:15;;;;;;;9.00;6.30;;;;;;;0.11;40.07;102888.34;106049;1264;1002514;-51
2024/01/10 08:18:42;;;;;;;12.20;7.40;;;;;;;0.12;40.28;102884.67;106653;1267;22572;-52
2024/01/10 08:21:09;;;;;;;11.40;7.00;;;;;;;0.12;40.22;102877.65;105788;1260;1003420;-52
2024/01/10 08:23:36;;;;;;;10.30;6.60;;;;;;;0.11;40.17;102877.27;106271;1256;1003210;-51
2024/01/10 08:26:08;;;;;;;9.90;6.60;;;;;;;0.12;40.46;102876.64;107180;1256;25477;-51
2024/01/10 08:28:35;;;;;;;10.60;5.80;;;;;;;0.15;40.70;102877.80;106331;1254;1003032;-51
2024/01/10 08:31:02;;;;;;;11.80;6.50;;;;;;;0.19;40.61;102875.84;106297;1265;1002956;-51
2024/01/10 08:33:34;;;;;;;7.90;5.70;;;;;;;0.25;40.75;102875.48;106410;1270;1003389;-49
2024/01/10 08:36:02;;;;;;;7.70;5.80;;;;;;;0.32;40.54;102875.32;107159;1256;25337;-51
2024/01/10 08:38:29;;;;;;;12.00;6.50;;;;;;;0.33;39.97;102873.35;107169;1254;23149;-52
2024/01/10 08:40:56;;;;;;;8.30;5.60;;;;;;;0.36;40.26;102874.02;107041;1263;22530;-51
2024/01/10 08:43:23;;;;;;;8.60;5.50;;;;;;;0.39;39.46;102867.53;107117;1256;24201;-51
2024/01/10 08:45:50;;;;;;;9.60;5.50;;;;;;;0.41;39.73;102871.89;107129;1267;25328;-52
2024/01/10 08:48:17;;;;;;;9.90;5.70;;;;;;;0.43;40.06;102875.95;106363;1257;1003063;-51
2024/01/10 08:50:44;;;;;;;10.50;6.40;;;;;;;0.44;39.54;102877.05;107106;1258;25365;-51
2024/01/10 08:53:11;;;;;;;14.20;6.40;;;;;;;0.46;39.86;102875.41;107120;1257;25478;-51
2024/01/10 08:55:38;;;;;;;9.00;5.60;;;;;;;0.48;39.65;102872.27;106888;1271;25366;-51
2024/01/10 08:58:06;;;;;;;8.30;5.90;;;;;;;0.50;39.39;102862.48;106943;1261;25405;-52
2024/01/10 09:00:34;;;;;;;9.10;6.00;;;;;;;0.49;39.68;102864.84;107137;1254;23532;-51
2024/01/10 09:03:02;;;;;;;9.50;5.90;;;;;;;0.51;39.44;102854.31;106147;1267;1002926;-51
2024/01/10 09:05:29;;;;;;;10.50;6.60;;;;;;;0.53;39.81;102853.43;106871;1267;25456;-52
2024/01/10 09:07:56;;;;;;;11.10;6.20;;;;;;;0.58;40.01;102853.65;106298;1256;1003106;-51
2024/01/10 09:10:27;;;;;;;9.90;5.80;;;;;;;0.63;39.37;102844.17;106898;1260;25356;-52
2024/01/10 09:12:55;;;;;;;11.20;6.90;;;;;;;0.62;38.96;102839.70;106113;1270;1003286;-51
2024/01/10 09:15:22;;;;;;;10.30;6.60;;;;;;;0.65;39.62;102834.27;106390;1267;1003310;-51
2024/01/10 09:17:49;;;;;;;8.50;5.90;;;;;;;0.74;39.29;102827.52;106312;1263;1003419;-51
2024/01/10 09:20:16;;;;;;;9.50;5.80;;;;;;;0.81;39.50;102829.23;107063;1270;25347;-51
2024/01/10 09:22:44;;;;;;;9.00;5.80;;;;;;;0.87;39.42;102827.14;106947;1271;25356;-51
2024/01/10 09:25:12;;;;;;;10.30;5.50;;;;;;;0.92;39.50;102832.56;107218;1254;25328;-51
2024/01/10 09:27:41;;;;;;;9.20;6.10;;;;;;;0.97;39.30;102828.69;107167;1258;25414;-51
2024/01/10 09:30:08;;;;;;;9.50;6.10;;;;;;;1.00;38.85;102826.61;106360;1267;1003348;-50
2024/01/10 09:32:37;;;;;;;8.40;5.70;;;;;;;1.03;38.98;102825.22;107078;1267;22533;-51
2024/01/10 09:35:05;;;;;;;10.10;7.00;;;;;;;1.06;38.76;102818.04;106083;1251;1003622;-51
2024/01/10 09:37:33;;;;;;;9.00;5.60;;;;;;;1.09;39.22;102817.69;106097;1274;1003025;-51
2024/01/10 09:40:00;;;;;;;10.00;6.10;;;;;;;1.14;39.15;102819.13;107161;1267;25396;-51
2024/01/10 09:42:31;;;;;;;8.80;5.80;;;;;;;1.16;38.73;102818.89;107114;1251;25382;-51
2024/01/10 09:45:02;;;;;;;8.30;6.00;;;;;;;1.20;38.89;102813.82;106800;1258;22553;-51
2024/01/10 09:47:31;;;;;;;10.80;5.70;;;;;;;1.25;39.02;102813.85;105839;1275;1003596;-51
2024/01/10 09:50:01;;;;;;;9.30;6.10;;;;;;;1.27;39.22;102817.08;106750;1272;25393;-51
2024/01/10 09:52:29;;;;;;;9.80;6.40;;;;;;;1.33;39.38;102815.30;106052;1270;1003577;-51
2024/01/10 09:54:57;;;;;;;9.10;5.80;;;;;;;1.39;39.29;102807.23;106603;1265;25373;-51
2024/01/10 09:57:27;;;;;;;9.70;6.30;;;;;;;1.45;39.01;102807.33;106642;1274;25347;-51
2024/01/10 09:59:56;;;;;;;8.20;5.30;;;;;;;1.50;38.95;102801.56;106331;1275;25482;-51
2024/01/10 10:02:24;;;;;;;9.10;6.40;;;;;;;1.52;38.94;102802.19;105880;1273;1003797;-51
2024/01/10 10:05:01;;;;;;;10.90;7.10;;;;;;;1.57;38.87;102803.11;105643;1276;1003419;-51
2024/01/10 10:07:28;;;;;;;9.80;6.30;;;;;;;1.61;39.11;102800.59;106473;1276;22530;-51
2024/01/10 10:09:58;;;;;;;8.30;6.10;;;;;;;1.68;38.96;102798.98;106584;1273;25352;-51
2024/01/10 10:12:51;;;;;;;9.70;5.80;;;;;;;1.72;38.54;102801.55;105900;1273;1003625;-51
2024/01/10 10:15:26;;;;;;;8.50;5.90;;;;;;;1.75;38.76;102798.96;105922;1273;1003754;-51
2024/01/10 10:17:53;;;;;;;7.10;5.40;;;;;;;1.79;38.46;102793.36;106730;1270;22532;-51
2024/01/10 10:20:29;;;;;;;8.50;5.80;;;;;;;1.82;38.33;102795.20;106047;1272;1003281;-51
2024/01/10 10:23:04;;;;;;;8.10;5.70;;;;;;;1.85;38.39;102796.72;106811;1269;24240;-51
2024/01/10 10:25:35;;;;;;;10.20;5.70;;;;;;;1.88;38.76;102798.38;106823;1269;24240;-51
2024/01/10 10:28:03;;;;;;;8.00;5.30;;;;;;;1.90;38.24;102789.41;106905;1269;25481;-51
2024/01/10 10:30:31;;;;;;;6.90;5.30;;;;;;;1.91;37.98;102787.56;106815;1270;25427;-52
2024/01/10 10:32:59;;;;;;;8.40;5.50;;;;;;;1.92;38.26;102777.88;106072;1274;1002944;-51
2024/01/10 10:35:26;;;;;;;12.40;7.40;;;;;;;1.92;38.57;102774.95;107137;1266;22559;-51
2024/01/10 10:38:08;;;;;;;8.50;5.80;;;;;;;1.94;38.80;102769.04;106389;1253;1003755;-50
2024/01/10 10:40:35;;;;;;;10.10;6.00;;;;;;;1.97;38.82;102765.42;106064;1257;1003181;-51
2024/01/10 10:43:03;;;;;;;9.40;6.00;;;;;;;2.00;38.40;102762.48;106459;1267;1002880;-51
2024/01/10 10:45:31;;;;;;;8.50;5.80;;;;;;;1.99;38.33;102760.88;106406;1267;1003095;-51
2024/01/10 10:47:59;;;;;;;7.30;5.60;;;;;;;2.01;38.13;102763.23;106866;1267;23252;-51
2024/01/10 10:50:29;;;;;;;9.60;6.60;;;;;;;2.02;38.24;102757.10;106362;1266;1003050;-51
2024/01/10 10:52:56;;;;;;;11.30;6.40;;;;;;;2.01;38.34;102746.63;106327;1267;1003136;-51
2024/01/10 10:55:23;;;;;;;9.20;6.00;;;;;;;2.00;37.82;102745.39;106982;1269;25376;-51
2024/01/10 10:57:50;;;;;;;8.30;6.20;;;;;;;1.99;38.33;102743.11;106851;1270;25463;-51
2024/01/10 11:00:31;;;;;;;10.00;6.40;;;;;;;2.01;38.17;102743.17;106188;1268;1002892;-51
2024/01/10 11:02:58;;;;;;;8.60;6.20;;;;;;;2.01;38.52;102741.14;106923;1266;25653;-51
2024/01/10 11:05:25;;;;;;;9.00;6.30;;;;;;;2.02;38.66;102736.05;106656;1269;22538;-51
2024/01/10 11:07:53;;;;;;;10.00;6.40;;;;;;;2.04;38.26;102733.94;106518;1275;25312;-51
2024/01/10 11:10:34;;;;;;;9.00;6.00;;;;;;;2.05;38.48;102727.97;105805;1267;1003010;-51
2024/01/10 11:13:38;;;;;;;10.30;6.70;;;;;;;2.07;38.07;102722.41;106824;1266;24202;-51
2024/01/10 11:16:11;;;;;;;11.60;6.30;;;;;;;2.10;38.35;102719.79;107056;1266;25331;-51